sensor_id;sensor_type;location;lat;lon;timestamp;P1;durP1;ratioP1;P2;durP2;ratioP2
13173;SDS011;6652;48.802;9.190;2024-03-22T00:02:11;28.50;;;16.48;;
13173;SDS011;6652;48.802;9.190;2024-03-22T00:04:37;30.30;;;17.55;;
13173;SDS011;6652;48.802;9.190;2024-03-22T00:07:04;25.48;;;17.30;;
13173;SDS011;6652;48.802;9.190;2024-03-22T00:09:30;29.42;;;17.67;;
13173;SDS011;6652;48.802;9.190;2024-03-22T00:11:59;26.30;;;15.82;;
13173;SDS011;6652;48.802;9.190;2024-03-22T00:14:24;39.00;;;17.65;;
13173;SDS011;6652;48.802;9.190;2024-03-22T00:16:51;30.60;;;16.95;;
13173;SDS011;6652;48.802;9.190;2024-03-22T00:19:19;29.00;;;16.60;;
13173;SDS011;6652;48.802;9.190;2024-03-22T00:21:45;26.35;;;16.08;;
13173;SDS011;6652;48.802;9.190;2024-03-22T00:24:11;30.45;;;18.48;;
13173;SDS011;6652;48.802;9.190;2024-03-22T00:26:38;30.55;;;16.85;;
13173;SDS011;6652;48.802;9.190;2024-03-22T00:29:04;34.45;;;16.77;;
13173;SDS011;6652;48.802;9.190;2024-03-22T00:31:31;33.00;;;16.85;;
13173;SDS011;6652;48.802;9.190;2024-03-22T00:33:57;32.33;;;16.83;;
13173;SDS011;6652;48.802;9.190;2024-03-22T00:36:25;27.48;;;16.23;;
13173;SDS011;6652;48.802;9.190;2024-03-22T00:38:51;30.98;;;17.02;;
13173;SDS011;6652;48.802;9.190;2024-03-22T00:41:18;32.30;;;18.33;;
13173;SDS011;6652;48.802;9.190;2024-03-22T00:43:43;30.10;;;17.48;;
13173;SDS011;6652;48.802;9.190;2024-03-22T00:46:10;31.45;;;17.75;;
13173;SDS011;6652;48.802;9.190;2024-03-22T00:48:36;31.92;;;15.77;;
13173;SDS011;6652;48.802;9.190;2024-03-22T00:51:03;25.27;;;16.30;;
13173;SDS011;6652;48.802;9.190;2024-03-22T00:53:30;26.45;;;16.55;;
13173;SDS011;6652;48.802;9.190;2024-03-22T00:55:58;28.20;;;16.45;;
13173;SDS011;6652;48.802;9.190;2024-03-22T00:58:24;31.73;;;15.82;;
13173;SDS011;6652;48.802;9.190;2024-03-22T01:00:52;27.42;;;16.63;;
13173;SDS011;6652;48.802;9.190;2024-03-22T01:03:18;28.98;;;17.10;;
13173;SDS011;6652;48.802;9.190;2024-03-22T01:05:45;34.53;;;18.50;;
13173;SDS011;6652;48.802;9.190;2024-03-22T01:08:11;37.15;;;18.58;;
13173;SDS011;6652;48.802;9.190;2024-03-22T01:10:39;36.35;;;18.90;;
13173;SDS011;6652;48.802;9.190;2024-03-22T01:13:05;29.27;;;17.20;;
13173;SDS011;6652;48.802;9.190;2024-03-22T01:15:32;36.45;;;17.27;;
13173;SDS011;6652;48.802;9.190;2024-03-22T01:17:58;30.45;;;16.85;;
13173;SDS011;6652;48.802;9.190;2024-03-22T01:20:25;31.70;;;18.00;;
13173;SDS011;6652;48.802;9.190;2024-03-22T01:22:50;39.63;;;19.73;;
13173;SDS011;6652;48.802;9.190;2024-03-22T01:25:17;33.60;;;18.75;;
13173;SDS011;6652;48.802;9.190;2024-03-22T01:27:45;34.03;;;18.83;;
13173;SDS011;6652;48.802;9.190;2024-03-22T01:30:12;31.92;;;17.88;;
13173;SDS011;6652;48.802;9.190;2024-03-22T01:32:37;31.50;;;18.75;;
13173;SDS011;6652;48.802;9.190;2024-03-22T01:35:04;33.03;;;18.65;;
13173;SDS011;6652;48.802;9.190;2024-03-22T01:37:30;32.35;;;18.48;;
13173;SDS011;6652;48.802;9.190;2024-03-22T01:39:57;42.05;;;20.98;;
13173;SDS011;6652;48.802;9.190;2024-03-22T01:42:23;34.75;;;21.20;;
13173;SDS011;6652;48.802;9.190;2024-03-22T01:44:52;39.38;;;21.92;;
13173;SDS011;6652;48.802;9.190;2024-03-22T01:47:18;33.20;;;19.85;;
13173;SDS011;6652;48.802;9.190;2024-03-22T01:49:45;45.47;;;24.48;;
13173;SDS011;6652;48.802;9.190;2024-03-22T01:52:11;48.10;;;24.05;;
13173;SDS011;6652;48.802;9.190;2024-03-22T01:54:38;41.45;;;23.25;;
13173;SDS011;6652;48.802;9.190;2024-03-22T01:57:06;39.97;;;24.13;;
13173;SDS011;6652;48.802;9.190;2024-03-22T01:59:33;50.65;;;24.45;;
13173;SDS011;6652;48.802;9.190;2024-03-22T02:02:00;47.03;;;24.98;;
13173;SDS011;6652;48.802;9.190;2024-03-22T02:04:28;41.60;;;23.00;;
13173;SDS011;6652;48.802;9.190;2024-03-22T02:06:54;46.75;;;23.85;;
13173;SDS011;6652;48.802;9.190;2024-03-22T02:09:21;37.88;;;23.48;;
13173;SDS011;6652;48.802;9.190;2024-03-22T02:11:47;42.92;;;24.10;;
13173;SDS011;6652;48.802;9.190;2024-03-22T02:14:14;44.50;;;23.30;;
13173;SDS011;6652;48.802;9.190;2024-03-22T02:16:40;39.50;;;23.95;;
13173;SDS011;6652;48.802;9.190;2024-03-22T02:19:08;40.35;;;24.08;;
13173;SDS011;6652;48.802;9.190;2024-03-22T02:21:34;40.63;;;23.33;;
13173;SDS011;6652;48.802;9.190;2024-03-22T02:24:03;43.47;;;23.65;;
13173;SDS011;6652;48.802;9.190;2024-03-22T02:26:29;46.55;;;24.27;;
13173;SDS011;6652;48.802;9.190;2024-03-22T02:28:56;41.80;;;24.08;;
13173;SDS011;6652;48.802;9.190;2024-03-22T02:31:22;39.00;;;23.17;;
13173;SDS011;6652;48.802;9.190;2024-03-22T02:33:50;43.80;;;23.38;;
13173;SDS011;6652;48.802;9.190;2024-03-22T02:36:16;42.22;;;22.90;;
13173;SDS011;6652;48.802;9.190;2024-03-22T02:38:44;39.72;;;23.35;;
13173;SDS011;6652;48.802;9.190;2024-03-22T02:41:11;45.10;;;23.83;;
13173;SDS011;6652;48.802;9.190;2024-03-22T02:43:37;46.33;;;23.58;;
13173;SDS011;6652;48.802;9.190;2024-03-22T02:46:03;39.20;;;22.45;;
13173;SDS011;6652;48.802;9.190;2024-03-22T02:48:30;40.13;;;22.27;;
13173;SDS011;6652;48.802;9.190;2024-03-22T02:50:57;41.92;;;22.95;;
13173;SDS011;6652;48.802;9.190;2024-03-22T02:53:24;42.47;;;21.95;;
13173;SDS011;6652;48.802;9.190;2024-03-22T02:55:50;36.55;;;21.05;;
13173;SDS011;6652;48.802;9.190;2024-03-22T02:58:19;37.53;;;21.98;;
13173;SDS011;6652;48.802;9.190;2024-03-22T03:00:46;40.20;;;22.00;;
13173;SDS011;6652;48.802;9.190;2024-03-22T03:03:13;41.03;;;21.90;;
13173;SDS011;6652;48.802;9.190;2024-03-22T03:05:39;36.47;;;21.30;;
13173;SDS011;6652;48.802;9.190;2024-03-22T03:08:06;37.25;;;21.75;;
13173;SDS011;6652;48.802;9.190;2024-03-22T03:10:32;39.70;;;21.75;;
13173;SDS011;6652;48.802;9.190;2024-03-22T03:12:59;35.97;;;22.45;;
13173;SDS011;6652;48.802;9.190;2024-03-22T03:15:26;40.30;;;22.48;;
13173;SDS011;6652;48.802;9.190;2024-03-22T03:17:53;36.50;;;20.48;;
13173;SDS011;6652;48.802;9.190;2024-03-22T03:20:18;34.42;;;20.63;;
13173;SDS011;6652;48.802;9.190;2024-03-22T03:22:45;33.42;;;20.75;;
13173;SDS011;6652;48.802;9.190;2024-03-22T03:25:11;41.95;;;22.95;;
13173;SDS011;6652;48.802;9.190;2024-03-22T03:27:38;42.10;;;21.90;;
13173;SDS011;6652;48.802;9.190;2024-03-22T03:30:04;34.58;;;20.73;;
13173;SDS011;6652;48.802;9.190;2024-03-22T03:32:33;34.13;;;19.80;;
13173;SDS011;6652;48.802;9.190;2024-03-22T03:34:59;36.95;;;20.55;;
13173;SDS011;6652;48.802;9.190;2024-03-22T03:37:26;42.67;;;22.08;;
13173;SDS011;6652;48.802;9.190;2024-03-22T03:39:51;33.85;;;21.50;;
13173;SDS011;6652;48.802;9.190;2024-03-22T03:42:19;38.50;;;22.55;;
13173;SDS011;6652;48.802;9.190;2024-03-22T03:44:44;36.50;;;21.73;;
13173;SDS011;6652;48.802;9.190;2024-03-22T03:47:11;35.15;;;22.15;;
13173;SDS011;6652;48.802;9.190;2024-03-22T03:52:06;39.08;;;21.38;;
13173;SDS011;6652;48.802;9.190;2024-03-22T03:54:33;38.95;;;21.58;;
13173;SDS011;6652;48.802;9.190;2024-03-22T03:56:59;44.15;;;22.02;;
13173;SDS011;6652;48.802;9.190;2024-03-22T03:59:26;36.75;;;22.75;;
13173;SDS011;6652;48.802;9.190;2024-03-22T04:01:52;39.80;;;23.52;;
13173;SDS011;6652;48.802;9.190;2024-03-22T04:04:19;39.42;;;23.15;;
13173;SDS011;6652;48.802;9.190;2024-03-22T04:06:45;37.75;;;22.98;;
13173;SDS011;6652;48.802;9.190;2024-03-22T04:09:13;39.78;;;22.10;;
13173;SDS011;6652;48.802;9.190;2024-03-22T04:11:39;40.88;;;22.63;;
13173;SDS011;6652;48.802;9.190;2024-03-22T04:14:06;38.53;;;20.75;;
13173;SDS011;6652;48.802;9.190;2024-03-22T04:16:32;41.88;;;21.70;;
13173;SDS011;6652;48.802;9.190;2024-03-22T04:18:58;34.83;;;19.92;;
13173;SDS011;6652;48.802;9.190;2024-03-22T04:21:24;39.83;;;21.73;;
13173;SDS011;6652;48.802;9.190;2024-03-22T04:23:51;33.38;;;20.83;;
13173;SDS011;6652;48.802;9.190;2024-03-22T04:26:18;37.10;;;21.45;;
13173;SDS011;6652;48.802;9.190;2024-03-22T04:28:46;36.83;;;20.52;;
13173;SDS011;6652;48.802;9.190;2024-03-22T04:31:12;33.10;;;19.67;;
13173;SDS011;6652;48.802;9.190;2024-03-22T04:33:39;33.42;;;18.90;;
13173;SDS011;6652;48.802;9.190;2024-03-22T04:36:05;33.60;;;20.75;;
13173;SDS011;6652;48.802;9.190;2024-03-22T04:38:34;40.45;;;20.33;;
13173;SDS011;6652;48.802;9.190;2024-03-22T04:41:02;34.50;;;18.98;;
13173;SDS011;6652;48.802;9.190;2024-03-22T04:43:30;32.50;;;19.00;;
13173;SDS011;6652;48.802;9.190;2024-03-22T04:45:57;33.90;;;20.60;;
13173;SDS011;6652;48.802;9.190;2024-03-22T04:48:24;32.65;;;20.10;;
13173;SDS011;6652;48.802;9.190;2024-03-22T04:50:50;36.80;;;20.08;;
13173;SDS011;6652;48.802;9.190;2024-03-22T04:53:19;36.10;;;19.67;;
13173;SDS011;6652;48.802;9.190;2024-03-22T04:55:46;36.00;;;18.27;;
13173;SDS011;6652;48.802;9.190;2024-03-22T04:58:14;33.38;;;19.73;;
13173;SDS011;6652;48.802;9.190;2024-03-22T05:00:42;33.88;;;18.33;;
13173;SDS011;6652;48.802;9.190;2024-03-22T05:03:09;30.95;;;18.98;;
13173;SDS011;6652;48.802;9.190;2024-03-22T05:05:36;31.05;;;18.27;;
13173;SDS011;6652;48.802;9.190;2024-03-22T05:08:03;29.45;;;18.13;;
13173;SDS011;6652;48.802;9.190;2024-03-22T05:10:30;33.30;;;18.08;;
13173;SDS011;6652;48.802;9.190;2024-03-22T05:12:57;36.53;;;18.48;;
13173;SDS011;6652;48.802;9.190;2024-03-22T05:15:24;28.67;;;17.63;;
13173;SDS011;6652;48.802;9.190;2024-03-22T05:17:53;35.88;;;16.80;;
13173;SDS011;6652;48.802;9.190;2024-03-22T05:20:21;31.70;;;17.92;;
13173;SDS011;6652;48.802;9.190;2024-03-22T05:22:49;26.63;;;16.95;;
13173;SDS011;6652;48.802;9.190;2024-03-22T05:25:15;31.83;;;18.30;;
13173;SDS011;6652;48.802;9.190;2024-03-22T05:27:42;31.67;;;16.48;;
13173;SDS011;6652;48.802;9.190;2024-03-22T05:30:09;29.83;;;16.80;;
13173;SDS011;6652;48.802;9.190;2024-03-22T05:32:37;28.65;;;16.48;;
13173;SDS011;6652;48.802;9.190;2024-03-22T05:35:05;24.88;;;16.27;;
13173;SDS011;6652;48.802;9.190;2024-03-22T05:37:32;28.50;;;16.35;;
13173;SDS011;6652;48.802;9.190;2024-03-22T05:39:58;25.17;;;14.85;;
13173;SDS011;6652;48.802;9.190;2024-03-22T05:42:26;31.45;;;15.27;;
13173;SDS011;6652;48.802;9.190;2024-03-22T05:44:51;22.08;;;14.45;;
13173;SDS011;6652;48.802;9.190;2024-03-22T05:47:19;23.88;;;14.73;;
13173;SDS011;6652;48.802;9.190;2024-03-22T05:49:45;26.67;;;13.85;;
13173;SDS011;6652;48.802;9.190;2024-03-22T05:52:15;25.80;;;14.15;;
13173;SDS011;6652;48.802;9.190;2024-03-22T05:54:41;25.95;;;14.57;;
13173;SDS011;6652;48.802;9.190;2024-03-22T05:57:07;27.92;;;15.52;;
13173;SDS011;6652;48.802;9.190;2024-03-22T05:59:34;24.30;;;13.88;;
13173;SDS011;6652;48.802;9.190;2024-03-22T06:02:01;30.30;;;14.38;;
13173;SDS011;6652;48.802;9.190;2024-03-22T06:04:27;24.65;;;15.43;;
13173;SDS011;6652;48.802;9.190;2024-03-22T06:06:54;26.92;;;13.55;;
13173;SDS011;6652;48.802;9.190;2024-03-22T06:09:22;20.05;;;13.02;;
13173;SDS011;6652;48.802;9.190;2024-03-22T06:11:59;24.33;;;12.48;;
13173;SDS011;6652;48.802;9.190;2024-03-22T06:14:25;23.65;;;13.93;;
13173;SDS011;6652;48.802;9.190;2024-03-22T06:16:53;20.63;;;12.52;;
13173;SDS011;6652;48.802;9.190;2024-03-22T06:19:19;30.52;;;13.57;;
13173;SDS011;6652;48.802;9.190;2024-03-22T06:21:46;26.63;;;12.45;;
13173;SDS011;6652;48.802;9.190;2024-03-22T06:24:12;27.00;;;11.52;;
13173;SDS011;6652;48.802;9.190;2024-03-22T06:26:42;35.47;;;13.93;;
13173;SDS011;6652;48.802;9.190;2024-03-22T06:29:08;24.17;;;12.50;;
13173;SDS011;6652;48.802;9.190;2024-03-22T06:31:35;21.20;;;12.77;;
13173;SDS011;6652;48.802;9.190;2024-03-22T06:34:01;23.27;;;13.20;;
13173;SDS011;6652;48.802;9.190;2024-03-22T06:36:28;23.60;;;13.05;;
13173;SDS011;6652;48.802;9.190;2024-03-22T06:38:54;26.00;;;12.50;;
13173;SDS011;6652;48.802;9.190;2024-03-22T06:41:21;18.30;;;12.02;;
13173;SDS011;6652;48.802;9.190;2024-03-22T06:43:48;22.45;;;13.90;;
13173;SDS011;6652;48.802;9.190;2024-03-22T06:46:16;20.77;;;11.70;;
13173;SDS011;6652;48.802;9.190;2024-03-22T06:48:41;23.85;;;11.77;;
13173;SDS011;6652;48.802;9.190;2024-03-22T06:51:09;17.83;;;12.63;;
13173;SDS011;6652;48.802;9.190;2024-03-22T06:53:35;22.63;;;12.45;;
13173;SDS011;6652;48.802;9.190;2024-03-22T06:56:03;26.13;;;12.38;;
13173;SDS011;6652;48.802;9.190;2024-03-22T06:58:29;16.38;;;11.20;;
13173;SDS011;6652;48.802;9.190;2024-03-22T07:00:58;23.83;;;12.65;;
13173;SDS011;6652;48.802;9.190;2024-03-22T07:03:25;17.85;;;11.20;;
13173;SDS011;6652;48.802;9.190;2024-03-22T07:05:52;16.63;;;10.85;;
13173;SDS011;6652;48.802;9.190;2024-03-22T07:08:18;17.77;;;11.40;;
13173;SDS011;6652;48.802;9.190;2024-03-22T07:10:45;21.23;;;11.40;;
13173;SDS011;6652;48.802;9.190;2024-03-22T07:13:11;19.92;;;11.13;;
13173;SDS011;6652;48.802;9.190;2024-03-22T07:15:38;18.15;;;11.68;;
13173;SDS011;6652;48.802;9.190;2024-03-22T07:18:06;15.18;;;9.98;;
13173;SDS011;6652;48.802;9.190;2024-03-22T07:20:33;18.95;;;10.90;;
13173;SDS011;6652;48.802;9.190;2024-03-22T07:23:00;18.58;;;11.10;;
13173;SDS011;6652;48.802;9.190;2024-03-22T07:25:29;23.85;;;11.05;;
13173;SDS011;6652;48.802;9.190;2024-03-22T07:27:55;18.98;;;10.55;;
13173;SDS011;6652;48.802;9.190;2024-03-22T07:30:22;14.40;;;10.52;;
13173;SDS011;6652;48.802;9.190;2024-03-22T07:32:48;15.98;;;9.95;;
13173;SDS011;6652;48.802;9.190;2024-03-22T07:35:16;21.63;;;10.13;;
13173;SDS011;6652;48.802;9.190;2024-03-22T07:37:42;16.58;;;10.63;;
13173;SDS011;6652;48.802;9.190;2024-03-22T07:40:10;18.05;;;9.43;;
13173;SDS011;6652;48.802;9.190;2024-03-22T07:42:36;18.05;;;10.55;;
13173;SDS011;6652;48.802;9.190;2024-03-22T07:45:03;19.48;;;10.68;;
13173;SDS011;6652;48.802;9.190;2024-03-22T07:47:30;16.48;;;10.70;;
13173;SDS011;6652;48.802;9.190;2024-03-22T07:49:59;18.10;;;9.73;;
13173;SDS011;6652;48.802;9.190;2024-03-22T07:52:26;16.90;;;9.85;;
13173;SDS011;6652;48.802;9.190;2024-03-22T07:54:56;21.20;;;10.20;;
13173;SDS011;6652;48.802;9.190;2024-03-22T07:57:21;23.25;;;10.77;;
13173;SDS011;6652;48.802;9.190;2024-03-22T07:59:49;20.60;;;10.90;;
13173;SDS011;6652;48.802;9.190;2024-03-22T08:02:15;16.35;;;10.55;;
13173;SDS011;6652;48.802;9.190;2024-03-22T08:04:42;16.80;;;10.35;;
13173;SDS011;6652;48.802;9.190;2024-03-22T08:07:07;21.92;;;10.05;;
13173;SDS011;6652;48.802;9.190;2024-03-22T08:09:37;16.92;;;9.35;;
13173;SDS011;6652;48.802;9.190;2024-03-22T08:12:04;15.77;;;9.80;;
13173;SDS011;6652;48.802;9.190;2024-03-22T08:14:31;25.98;;;10.02;;
13173;SDS011;6652;48.802;9.190;2024-03-22T08:16:57;12.80;;;9.73;;
13173;SDS011;6652;48.802;9.190;2024-03-22T08:19:24;17.75;;;10.70;;
13173;SDS011;6652;48.802;9.190;2024-03-22T08:21:50;23.55;;;11.38;;
13173;SDS011;6652;48.802;9.190;2024-03-22T08:24:20;19.15;;;10.38;;
13173;SDS011;6652;48.802;9.190;2024-03-22T08:26:48;21.40;;;11.07;;
13173;SDS011;6652;48.802;9.190;2024-03-22T08:29:14;19.80;;;11.23;;
13173;SDS011;6652;48.802;9.190;2024-03-22T08:31:40;19.67;;;10.00;;
13173;SDS011;6652;48.802;9.190;2024-03-22T08:34:08;21.20;;;11.40;;
13173;SDS011;6652;48.802;9.190;2024-03-22T08:36:34;25.73;;;11.48;;
13173;SDS011;6652;48.802;9.190;2024-03-22T08:39:03;20.38;;;11.25;;
13173;SDS011;6652;48.802;9.190;2024-03-22T08:41:30;28.15;;;11.10;;
13173;SDS011;6652;48.802;9.190;2024-03-22T08:43:59;18.05;;;10.20;;
13173;SDS011;6652;48.802;9.190;2024-03-22T08:46:24;19.38;;;11.20;;
13173;SDS011;6652;48.802;9.190;2024-03-22T08:48:53;21.38;;;10.70;;
13173;SDS011;6652;48.802;9.190;2024-03-22T08:51:19;22.27;;;11.73;;
13173;SDS011;6652;48.802;9.190;2024-03-22T08:53:47;19.27;;;11.10;;
13173;SDS011;6652;48.802;9.190;2024-03-22T08:56:13;33.10;;;11.73;;
13173;SDS011;6652;48.802;9.190;2024-03-22T08:58:40;27.42;;;11.77;;
13173;SDS011;6652;48.802;9.190;2024-03-22T09:03:50;23.25;;;12.68;;
13173;SDS011;6652;48.802;9.190;2024-03-22T09:06:16;17.83;;;11.13;;
13173;SDS011;6652;48.802;9.190;2024-03-22T09:08:43;20.75;;;11.65;;
13173;SDS011;6652;48.802;9.190;2024-03-22T09:11:09;17.77;;;10.77;;
13173;SDS011;6652;48.802;9.190;2024-03-22T09:13:35;18.95;;;10.35;;
13173;SDS011;6652;48.802;9.190;2024-03-22T09:16:01;21.35;;;10.95;;
13173;SDS011;6652;48.802;9.190;2024-03-22T09:18:30;26.83;;;10.98;;
13173;SDS011;6652;48.802;9.190;2024-03-22T09:20:56;21.77;;;10.73;;
13173;SDS011;6652;48.802;9.190;2024-03-22T09:23:23;16.92;;;10.63;;
13173;SDS011;6652;48.802;9.190;2024-03-22T09:25:50;20.48;;;10.32;;
13173;SDS011;6652;48.802;9.190;2024-03-22T09:28:17;24.70;;;10.85;;
13173;SDS011;6652;48.802;9.190;2024-03-22T09:30:43;22.08;;;10.07;;
13173;SDS011;6652;48.802;9.190;2024-03-22T09:33:10;26.58;;;10.07;;
13173;SDS011;6652;48.802;9.190;2024-03-22T09:35:37;23.77;;;10.30;;
13173;SDS011;6652;48.802;9.190;2024-03-22T09:38:04;20.17;;;9.68;;
13173;SDS011;6652;48.802;9.190;2024-03-22T09:40:30;15.57;;;7.88;;
13173;SDS011;6652;48.802;9.190;2024-03-22T09:43:01;16.40;;;8.48;;
13173;SDS011;6652;48.802;9.190;2024-03-22T09:45:28;17.17;;;7.45;;
13173;SDS011;6652;48.802;9.190;2024-03-22T09:47:56;14.05;;;8.02;;
13173;SDS011;6652;48.802;9.190;2024-03-22T09:50:23;17.63;;;7.72;;
13173;SDS011;6652;48.802;9.190;2024-03-22T09:52:51;11.88;;;7.95;;
13173;SDS011;6652;48.802;9.190;2024-03-22T09:55:18;15.27;;;7.47;;
13173;SDS011;6652;48.802;9.190;2024-03-22T09:57:48;14.43;;;5.32;;
13173;SDS011;6652;48.802;9.190;2024-03-22T10:00:15;7.68;;;3.78;;
13173;SDS011;6652;48.802;9.190;2024-03-22T10:02:45;7.72;;;3.25;;
13173;SDS011;6652;48.802;9.190;2024-03-22T10:05:12;11.73;;;3.60;;
13173;SDS011;6652;48.802;9.190;2024-03-22T10:07:39;9.13;;;3.90;;
13173;SDS011;6652;48.802;9.190;2024-03-22T10:10:08;7.80;;;4.47;;
13173;SDS011;6652;48.802;9.190;2024-03-22T10:12:35;6.28;;;3.10;;
13173;SDS011;6652;48.802;9.190;2024-03-22T10:15:05;6.68;;;3.40;;
13173;SDS011;6652;48.802;9.190;2024-03-22T10:17:34;9.98;;;4.03;;
13173;SDS011;6652;48.802;9.190;2024-03-22T10:20:02;9.80;;;3.67;;
13173;SDS011;6652;48.802;9.190;2024-03-22T10:22:33;9.43;;;3.65;;
13173;SDS011;6652;48.802;9.190;2024-03-22T10:24:58;10.05;;;3.78;;
13173;SDS011;6652;48.802;9.190;2024-03-22T10:27:28;7.00;;;3.20;;
13173;SDS011;6652;48.802;9.190;2024-03-22T10:29:54;10.00;;;3.67;;
13173;SDS011;6652;48.802;9.190;2024-03-22T10:32:22;10.68;;;3.92;;
13173;SDS011;6652;48.802;9.190;2024-03-22T10:34:48;10.50;;;3.60;;
13173;SDS011;6652;48.802;9.190;2024-03-22T10:37:16;5.82;;;3.60;;
13173;SDS011;6652;48.802;9.190;2024-03-22T10:39:42;7.80;;;3.70;;
13173;SDS011;6652;48.802;9.190;2024-03-22T10:42:10;8.75;;;4.20;;
13173;SDS011;6652;48.802;9.190;2024-03-22T10:44:39;9.35;;;5.13;;
13173;SDS011;6652;48.802;9.190;2024-03-22T10:47:09;13.23;;;4.20;;
13173;SDS011;6652;48.802;9.190;2024-03-22T10:49:37;9.40;;;3.78;;
13173;SDS011;6652;48.802;9.190;2024-03-22T10:52:05;10.85;;;3.58;;
13173;SDS011;6652;48.802;9.190;2024-03-22T10:54:34;8.68;;;4.07;;
13173;SDS011;6652;48.802;9.190;2024-03-22T10:57:06;7.38;;;3.60;;
13173;SDS011;6652;48.802;9.190;2024-03-22T10:59:36;8.55;;;3.70;;
13173;SDS011;6652;48.802;9.190;2024-03-22T11:02:05;6.78;;;3.30;;
13173;SDS011;6652;48.802;9.190;2024-03-22T11:04:32;7.90;;;3.78;;
13173;SDS011;6652;48.802;9.190;2024-03-22T11:07:02;10.15;;;4.40;;
13173;SDS011;6652;48.802;9.190;2024-03-22T11:09:28;11.95;;;3.47;;
13173;SDS011;6652;48.802;9.190;2024-03-22T11:11:55;8.25;;;3.92;;
13173;SDS011;6652;48.802;9.190;2024-03-22T11:14:21;11.27;;;4.15;;
13173;SDS011;6652;48.802;9.190;2024-03-22T11:16:49;11.27;;;4.03;;
13173;SDS011;6652;48.802;9.190;2024-03-22T11:19:16;6.15;;;3.75;;
13173;SDS011;6652;48.802;9.190;2024-03-22T11:21:44;11.80;;;4.28;;
13173;SDS011;6652;48.802;9.190;2024-03-22T11:24:10;8.25;;;4.32;;
13173;SDS011;6652;48.802;9.190;2024-03-22T11:26:37;10.90;;;4.25;;
13173;SDS011;6652;48.802;9.190;2024-03-22T11:29:03;9.35;;;4.38;;
13173;SDS011;6652;48.802;9.190;2024-03-22T11:31:29;12.07;;;4.68;;
13173;SDS011;6652;48.802;9.190;2024-03-22T11:33:56;8.70;;;4.00;;
13173;SDS011;6652;48.802;9.190;2024-03-22T11:36:24;14.40;;;3.97;;
13173;SDS011;6652;48.802;9.190;2024-03-22T11:38:50;26.10;;;5.13;;
13173;SDS011;6652;48.802;9.190;2024-03-22T11:41:19;8.73;;;4.20;;
13173;SDS011;6652;48.802;9.190;2024-03-22T11:43:49;11.57;;;5.07;;
13173;SDS011;6652;48.802;9.190;2024-03-22T11:46:17;7.38;;;3.95;;
13173;SDS011;6652;48.802;9.190;2024-03-22T11:48:43;10.07;;;3.90;;
13173;SDS011;6652;48.802;9.190;2024-03-22T11:51:10;7.85;;;3.30;;
13173;SDS011;6652;48.802;9.190;2024-03-22T11:53:37;7.35;;;3.47;;
13173;SDS011;6652;48.802;9.190;2024-03-22T11:56:05;6.20;;;3.55;;
13173;SDS011;6652;48.802;9.190;2024-03-22T11:58:36;8.35;;;3.60;;
13173;SDS011;6652;48.802;9.190;2024-03-22T12:01:03;12.38;;;3.90;;
13173;SDS011;6652;48.802;9.190;2024-03-22T12:03:30;8.00;;;3.58;;
13173;SDS011;6652;48.802;9.190;2024-03-22T12:05:57;8.43;;;3.50;;
13173;SDS011;6652;48.802;9.190;2024-03-22T12:08:23;7.95;;;3.05;;
13173;SDS011;6652;48.802;9.190;2024-03-22T12:10:53;6.78;;;3.60;;
13173;SDS011;6652;48.802;9.190;2024-03-22T12:13:19;8.27;;;3.17;;
13173;SDS011;6652;48.802;9.190;2024-03-22T12:15:46;7.68;;;3.75;;
13173;SDS011;6652;48.802;9.190;2024-03-22T12:18:13;8.50;;;4.10;;
13173;SDS011;6652;48.802;9.190;2024-03-22T12:20:40;7.85;;;2.90;;
13173;SDS011;6652;48.802;9.190;2024-03-22T12:23:06;11.75;;;3.10;;
13173;SDS011;6652;48.802;9.190;2024-03-22T12:25:33;8.23;;;3.13;;
13173;SDS011;6652;48.802;9.190;2024-03-22T12:28:02;6.25;;;3.30;;
13173;SDS011;6652;48.802;9.190;2024-03-22T12:30:29;5.32;;;3.10;;
13173;SDS011;6652;48.802;9.190;2024-03-22T12:32:55;6.00;;;3.00;;
13173;SDS011;6652;48.802;9.190;2024-03-22T12:35:22;6.20;;;3.08;;
13173;SDS011;6652;48.802;9.190;2024-03-22T12:37:50;12.27;;;3.72;;
13173;SDS011;6652;48.802;9.190;2024-03-22T12:40:20;10.48;;;3.40;;
13173;SDS011;6652;48.802;9.190;2024-03-22T12:42:46;5.57;;;3.33;;
13173;SDS011;6652;48.802;9.190;2024-03-22T12:45:15;14.10;;;3.90;;
13173;SDS011;6652;48.802;9.190;2024-03-22T12:47:42;6.45;;;2.83;;
13173;SDS011;6652;48.802;9.190;2024-03-22T12:50:10;6.30;;;2.85;;
13173;SDS011;6652;48.802;9.190;2024-03-22T12:52:38;7.18;;;2.53;;
13173;SDS011;6652;48.802;9.190;2024-03-22T12:55:05;5.47;;;3.08;;
13173;SDS011;6652;48.802;9.190;2024-03-22T12:57:32;5.80;;;3.03;;
13173;SDS011;6652;48.802;9.190;2024-03-22T12:59:59;7.50;;;3.35;;
13173;SDS011;6652;48.802;9.190;2024-03-22T13:02:26;9.93;;;3.70;;
13173;SDS011;6652;48.802;9.190;2024-03-22T13:05:00;8.50;;;2.70;;
13173;SDS011;6652;48.802;9.190;2024-03-22T13:07:26;12.70;;;3.03;;
13173;SDS011;6652;48.802;9.190;2024-03-22T13:09:54;5.93;;;3.03;;
13173;SDS011;6652;48.802;9.190;2024-03-22T13:12:20;7.07;;;2.67;;
13173;SDS011;6652;48.802;9.190;2024-03-22T13:14:50;11.35;;;2.90;;
13173;SDS011;6652;48.802;9.190;2024-03-22T13:17:17;6.75;;;3.30;;
13173;SDS011;6652;48.802;9.190;2024-03-22T13:22:35;5.47;;;2.92;;
13173;SDS011;6652;48.802;9.190;2024-03-22T13:25:03;6.38;;;2.67;;
13173;SDS011;6652;48.802;9.190;2024-03-22T13:27:32;6.18;;;3.17;;
13173;SDS011;6652;48.802;9.190;2024-03-22T13:30:01;8.10;;;3.05;;
13173;SDS011;6652;48.802;9.190;2024-03-22T13:32:27;6.65;;;2.60;;
13173;SDS011;6652;48.802;9.190;2024-03-22T13:34:54;5.15;;;2.75;;
13173;SDS011;6652;48.802;9.190;2024-03-22T13:37:22;4.25;;;2.22;;
13173;SDS011;6652;48.802;9.190;2024-03-22T13:39:49;4.20;;;2.38;;
13173;SDS011;6652;48.802;9.190;2024-03-22T13:42:16;5.05;;;2.53;;
13173;SDS011;6652;48.802;9.190;2024-03-22T13:44:44;6.47;;;3.33;;
13173;SDS011;6652;48.802;9.190;2024-03-22T13:47:10;5.75;;;2.72;;
13173;SDS011;6652;48.802;9.190;2024-03-22T13:49:37;7.38;;;3.35;;
13173;SDS011;6652;48.802;9.190;2024-03-22T13:52:06;7.07;;;3.08;;
13173;SDS011;6652;48.802;9.190;2024-03-22T13:54:38;12.65;;;3.10;;
13173;SDS011;6652;48.802;9.190;2024-03-22T13:57:04;6.53;;;3.17;;
13173;SDS011;6652;48.802;9.190;2024-03-22T13:59:31;8.68;;;2.70;;
13173;SDS011;6652;48.802;9.190;2024-03-22T14:01:58;7.00;;;3.13;;
13173;SDS011;6652;48.802;9.190;2024-03-22T14:04:26;12.05;;;3.17;;
13173;SDS011;6652;48.802;9.190;2024-03-22T14:06:52;8.98;;;3.58;;
13173;SDS011;6652;48.802;9.190;2024-03-22T14:09:19;10.15;;;3.85;;
13173;SDS011;6652;48.802;9.190;2024-03-22T14:11:47;9.35;;;3.88;;
13173;SDS011;6652;48.802;9.190;2024-03-22T14:14:15;11.13;;;4.22;;
13173;SDS011;6652;48.802;9.190;2024-03-22T14:16:41;7.43;;;3.83;;
13173;SDS011;6652;48.802;9.190;2024-03-22T14:19:08;9.55;;;3.78;;
13173;SDS011;6652;48.802;9.190;2024-03-22T14:21:34;7.82;;;3.42;;
13173;SDS011;6652;48.802;9.190;2024-03-22T14:24:03;7.88;;;3.45;;
13173;SDS011;6652;48.802;9.190;2024-03-22T14:53:02;4.82;;;2.03;;
13173;SDS011;6652;48.802;9.190;2024-03-22T14:55:51;2.42;;;1.58;;
13173;SDS011;6652;48.802;9.190;2024-03-22T14:58:20;3.45;;;1.65;;
13173;SDS011;6652;48.802;9.190;2024-03-22T15:00:53;4.63;;;2.28;;
13173;SDS011;6652;48.802;9.190;2024-03-22T15:03:21;5.15;;;1.65;;
13173;SDS011;6652;48.802;9.190;2024-03-22T15:05:47;2.88;;;1.70;;
13173;SDS011;6652;48.802;9.190;2024-03-22T15:08:20;3.53;;;1.55;;
13173;SDS011;6652;48.802;9.190;2024-03-22T15:10:47;3.25;;;1.75;;
13173;SDS011;6652;48.802;9.190;2024-03-22T15:13:16;6.30;;;2.00;;
13173;SDS011;6652;48.802;9.190;2024-03-22T15:15:43;5.13;;;1.52;;
13173;SDS011;6652;48.802;9.190;2024-03-22T15:18:21;4.95;;;1.60;;